Terminal Aerodrome Forecast
Issued by NWS

Home | Current Version | Previous Version | Text Only | Print | Product List | Glossary On
Versions: 1 2 3 4 5 6 7 8 9 10 11 12 13 14 15 16 17 18
000
FTUS43 KBIS 301402 AAA
TAFJMS
TAF AMD
KJMS 301402Z 3014/3112 18011KT P6SM SCT004
     FM301500 17012G18KT P6SM SCT250
     FM301900 18020G28KT P6SM SCT250
     FM310200 17015KT P6SM SCT250
     FM310900 19012KT P6SM SCT080 BKN250=

USA.gov is the U.S. government's official web portal to all federal, state and local government web resources and services.